East Blacksea — T2ZH3 — position and weather

sailwx.info

Track history (hours):
 
Tides and Currents Weather Stations Pressure Air Temp Water Temp Dewpoint Dewpoint Depression Visibility Wind Speed Wind Dir Waves Ship Positions

East Blacksea

Last reported at 2017-May-19 07:25 UTC. Time now 2017-May-25 08:38 UTC.
Position N 44°31' E 037°26'.

Length 69 m; draft 3.9 m.

Type: Cargo ship. MMSI: 572341210.

Date/timePositionNaut miles runAvg speedWind from/ knotsBaromVisibWave heightAir tempDewpointWater temp
2017-May-19 07:25N 44°31' E 037°26'3 7.3
2017-May-19 06:59N 44°32' E 037°30'4 7.2
2017-May-19 06:29N 44°32' E 037°35'3 7.0
2017-May-19 06:00N 44°32' E 037°40'3 6.6
2017-May-19 05:30N 44°34' E 037°44'4 7.1
2017-May-19 05:00N 44°37' E 037°47'3 7.0
2017-May-19 04:30N 44°39' E 037°50'3 7.0
2017-May-19 04:00N 44°43' E 037°48'1 2.2
2017-May-19 03:26N 44°44' E 037°48'0 0.0
2017-May-19 02:59N 44°44' E 037°48'0 0.0
2017-May-19 02:29N 44°44' E 037°48'0 0.0
2017-May-19 01:59N 44°44' E 037°48'0 0.0
2017-May-19 01:29N 44°44' E 037°48'0 0.0
2017-May-19 00:59N 44°44' E 037°48'0 0.0
2017-May-19 00:29N 44°44' E 037°48'0 0.0
2017-May-18 23:59N 44°44' E 037°48'0 0.0
2017-May-18 23:29N 44°44' E 037°48'0 0.0
2017-May-18 22:59N 44°44' E 037°48'0 0.0
2017-May-18 22:29N 44°44' E 037°48'0 0.0
2017-May-18 21:59N 44°44' E 037°48'0 0.0
2017-May-18 21:29N 44°44' E 037°48'0 0.0
2017-May-18 20:59N 44°44' E 037°48'0 0.0
2017-May-18 20:29N 44°44' E 037°48'0 0.0
2017-May-18 19:59N 44°44' E 037°48'0 0.0
2017-May-18 19:29N 44°44' E 037°48'0 0.0
2017-May-18 18:59N 44°44' E 037°48'0 0.0
2017-May-18 18:29N 44°44' E 037°48'0 0.0
2017-May-18 17:59N 44°44' E 037°48'0 0.0
2017-May-18 17:26N 44°44' E 037°48'0 0.0
2017-May-18 16:53N 44°44' E 037°48'0 0.0
2017-May-18 16:29N 44°44' E 037°48'0 0.0
2017-May-18 15:59N 44°44' E 037°48'0 0.0
2017-May-18 15:29N 44°44' E 037°48'0 0.0
2017-May-18 14:56N 44°44' E 037°48'0 0.0
2017-May-18 13:59N 44°44' E 037°48'0 0.0
2017-May-18 13:29N 44°44' E 037°48'0 0.0
2017-May-18 12:59N 44°44' E 037°48'0 0.0
2017-May-18 12:29N 44°44' E 037°48'0 0.0
2017-May-18 11:59N 44°44' E 037°48'0 0.0
2017-May-18 11:29N 44°44' E 037°48'0 0.0
2017-May-18 10:59N 44°44' E 037°48'0 0.0
2017-May-18 10:29N 44°44' E 037°48'0 0.0
2017-May-18 09:59N 44°44' E 037°48'0 0.0
2017-May-18 09:29N 44°44' E 037°48'0 0.0
2017-May-18 08:59N 44°44' E 037°48'0 0.0
2017-May-18 08:29N 44°44' E 037°48'0 0.0
2017-May-18 07:59N 44°44' E 037°48'0 0.0
2017-May-18 07:26N 44°44' E 037°48'0 0.0
2017-May-18 06:59N 44°44' E 037°48'0 0.0
2017-May-18 06:29N 44°44' E 037°48'0 0.0
2017-May-18 05:59N 44°44' E 037°48'0 0.0
2017-May-18 05:29N 44°44' E 037°48'0 0.0
2017-May-18 04:59N 44°44' E 037°48'0 0.0
2017-May-18 04:29N 44°44' E 037°48'0 0.0
2017-May-18 03:59N 44°44' E 037°48'0 0.0
2017-May-18 03:29N 44°44' E 037°48'0 0.0
2017-May-18 02:59N 44°44' E 037°48'0 0.0
2017-May-18 02:29N 44°44' E 037°48'0 0.0
2017-May-18 01:59N 44°44' E 037°48'0 0.0
2017-May-18 01:26N 44°44' E 037°48'0 0.0
2017-May-18 00:59N 44°44' E 037°48'0 0.0
2017-May-18 00:29N 44°44' E 037°48'0 0.0
2017-May-17 23:59N 44°44' E 037°48'0 0.0
2017-May-17 23:29N 44°44' E 037°48'0 0.0
2017-May-17 22:56N 44°44' E 037°48'0 0.0
2017-May-17 22:29N 44°44' E 037°48'0 0.0
2017-May-17 21:59N 44°44' E 037°48'0 0.0
2017-May-17 21:29N 44°44' E 037°48'0 0.0
2017-May-17 20:59N 44°44' E 037°48'0 0.0
2017-May-17 20:29N 44°44' E 037°48'0 0.0
2017-May-17 19:59N 44°44' E 037°48'0 0.0
2017-May-17 19:29N 44°44' E 037°48'0 0.0
2017-May-17 18:59N 44°44' E 037°48'0 0.0
2017-May-17 18:17N 44°44' E 037°48'0 0.0
2017-May-17 17:59N 44°44' E 037°48'0 0.0
2017-May-17 17:29N 44°44' E 037°48'  
Track history (hours):
 
Tides and Currents Weather Stations Pressure Air Temp Water Temp Dewpoint Dewpoint Depression Visibility Wind Speed Wind Dir Waves Ship Positions

East Blacksea

Last reported at 2017-May-19 07:25 UTC. Time now 2017-May-25 08:38 UTC.
Position N 44°31' E 037°26'.

Length 69 m; draft 3.9 m.

Type: Cargo ship. MMSI: 572341210.

Date/timePositionNaut miles runAvg speedWind from/ knotsBaromVisibWave heightAir tempDewpointWater temp
2017-May-19 07:25N 44°31' E 037°26'3 7.3
2017-May-19 06:59N 44°32' E 037°30'4 7.2
2017-May-19 06:29N 44°32' E 037°35'3 7.0
2017-May-19 06:00N 44°32' E 037°40'3 6.6
2017-May-19 05:30N 44°34' E 037°44'4 7.1
2017-May-19 05:00N 44°37' E 037°47'3 7.0
2017-May-19 04:30N 44°39' E 037°50'3 7.0
2017-May-19 04:00N 44°43' E 037°48'1 2.2
2017-May-19 03:26N 44°44' E 037°48'0 0.0
2017-May-19 02:59N 44°44' E 037°48'0 0.0
2017-May-19 02:29N 44°44' E 037°48'0 0.0
2017-May-19 01:59N 44°44' E 037°48'0 0.0
2017-May-19 01:29N 44°44' E 037°48'0 0.0
2017-May-19 00:59N 44°44' E 037°48'0 0.0
2017-May-19 00:29N 44°44' E 037°48'0 0.0
2017-May-18 23:59N 44°44' E 037°48'0 0.0
2017-May-18 23:29N 44°44' E 037°48'0 0.0
2017-May-18 22:59N 44°44' E 037°48'0 0.0
2017-May-18 22:29N 44°44' E 037°48'0 0.0
2017-May-18 21:59N 44°44' E 037°48'0 0.0
2017-May-18 21:29N 44°44' E 037°48'0 0.0
2017-May-18 20:59N 44°44' E 037°48'0 0.0
2017-May-18 20:29N 44°44' E 037°48'0 0.0
2017-May-18 19:59N 44°44' E 037°48'0 0.0
2017-May-18 19:29N 44°44' E 037°48'0 0.0
2017-May-18 18:59N 44°44' E 037°48'0 0.0
2017-May-18 18:29N 44°44' E 037°48'0 0.0
2017-May-18 17:59N 44°44' E 037°48'0 0.0
2017-May-18 17:26N 44°44' E 037°48'0 0.0
2017-May-18 16:53N 44°44' E 037°48'0 0.0
2017-May-18 16:29N 44°44' E 037°48'0 0.0
2017-May-18 15:59N 44°44' E 037°48'0 0.0
2017-May-18 15:29N 44°44' E 037°48'0 0.0
2017-May-18 14:56N 44°44' E 037°48'0 0.0
2017-May-18 13:59N 44°44' E 037°48'0 0.0
2017-May-18 13:29N 44°44' E 037°48'0 0.0
2017-May-18 12:59N 44°44' E 037°48'0 0.0
2017-May-18 12:29N 44°44' E 037°48'0 0.0
2017-May-18 11:59N 44°44' E 037°48'0 0.0
2017-May-18 11:29N 44°44' E 037°48'0 0.0
2017-May-18 10:59N 44°44' E 037°48'0 0.0
2017-May-18 10:29N 44°44' E 037°48'0 0.0
2017-May-18 09:59N 44°44' E 037°48'0 0.0
2017-May-18 09:29N 44°44' E 037°48'0 0.0
2017-May-18 08:59N 44°44' E 037°48'0 0.0
2017-May-18 08:29N 44°44' E 037°48'0 0.0
2017-May-18 07:59N 44°44' E 037°48'0 0.0
2017-May-18 07:26N 44°44' E 037°48'0 0.0
2017-May-18 06:59N 44°44' E 037°48'0 0.0
2017-May-18 06:29N 44°44' E 037°48'0 0.0
2017-May-18 05:59N 44°44' E 037°48'0 0.0
2017-May-18 05:29N 44°44' E 037°48'0 0.0
2017-May-18 04:59N 44°44' E 037°48'0 0.0
2017-May-18 04:29N 44°44' E 037°48'0 0.0
2017-May-18 03:59N 44°44' E 037°48'0 0.0
2017-May-18 03:29N 44°44' E 037°48'0 0.0
2017-May-18 02:59N 44°44' E 037°48'0 0.0
2017-May-18 02:29N 44°44' E 037°48'0 0.0
2017-May-18 01:59N 44°44' E 037°48'0 0.0
2017-May-18 01:26N 44°44' E 037°48'0 0.0
2017-May-18 00:59N 44°44' E 037°48'0 0.0
2017-May-18 00:29N 44°44' E 037°48'0 0.0
2017-May-17 23:59N 44°44' E 037°48'0 0.0
2017-May-17 23:29N 44°44' E 037°48'0 0.0
2017-May-17 22:56N 44°44' E 037°48'0 0.0
2017-May-17 22:29N 44°44' E 037°48'0 0.0
2017-May-17 21:59N 44°44' E 037°48'0 0.0
2017-May-17 21:29N 44°44' E 037°48'0 0.0
2017-May-17 20:59N 44°44' E 037°48'0 0.0
2017-May-17 20:29N 44°44' E 037°48'0 0.0
2017-May-17 19:59N 44°44' E 037°48'0 0.0
2017-May-17 19:29N 44°44' E 037°48'0 0.0
2017-May-17 18:59N 44°44' E 037°48'0 0.0
2017-May-17 18:17N 44°44' E 037°48'0 0.0
2017-May-17 17:59N 44°44' E 037°48'0 0.0
2017-May-17 17:29N 44°44' E 037°48'  

Dump ship's entire track history